ADDS METAR Data INFO
IDs: Format: Raw Decoded Include TAF

Data at: 0717 UTC 24 Jun 2018

KS25 240655Z AUTO 13007KT 8SM -RA FEW001 SCT031 BKN046 16/16 A2982 RMK AO2
KS25 240635Z AUTO 08007KT 9SM FEW028 FEW038 BKN080 16/16 A2983 RMK AO2
KS25 240615Z AUTO 08007G12KT 10SM OVC080 16/16 A2983 RMK AO2
KS25 240555Z AUTO 08005KT 10SM SCT085 17/17 A2982 RMK AO2
KS25 240535Z AUTO 06005KT 10SM CLR 17/17 A2982 RMK AO2
KS25 240515Z AUTO 07003KT 10SM CLR 17/17 A2982 RMK AO2
KS25 240455Z AUTO 00000KT 10SM -DZ SCT085 17/16 A2981 RMK AO2
KS25 240435Z AUTO 00000KT 10SM BKN090 17/16 A2981 RMK AO2
KS25 240415Z AUTO 00000KT 10SM BKN100 17/15 A2980 RMK AO2
KS25 240355Z AUTO VRB03KT 10SM SCT100 17/15 A2980 RMK AO2
KS25 231155Z AUTO 00000KT 10SM SCT085 15/15 A2970 RMK AO2
KS25 231135Z AUTO 00000KT 10SM CLR 14/14 A2970 RMK AO2
KS25 231115Z AUTO 00000KT 10SM CLR 14/14 A2969 RMK AO2
KS25 231055Z AUTO 00000KT 10SM CLR 14/14 A2969 RMK AO2
KS25 231035Z AUTO 00000KT 10SM CLR 14/14 A2969 RMK AO2
KS25 231015Z AUTO 00000KT 10SM CLR 14/14 A2969 RMK AO2
KS25 230955Z AUTO 00000KT 10SM CLR 14/14 A2969 RMK AO2
KS25 230935Z AUTO 13005KT 10SM CLR 14/14 A2968 RMK AO2
KS25 230915Z AUTO 12007KT 10SM SCT110 15/15 A2968 RMK AO2
KS25 230855Z AUTO 00000KT 10SM BKN110 15/15 A2968 RMK AO2
KS25 230835Z AUTO 00000KT 10SM BKN100 15/15 A2969 RMK AO2
KS25 230815Z AUTO 00000KT 10SM BKN100 15/15 A2970 RMK AO2
KS25 230755Z AUTO 00000KT 10SM BKN100 14/14 A2970 RMK AO2
KS25 230735Z AUTO 21004KT 10SM CLR 15/15 A2971 RMK AO2
KS25 230715Z AUTO 00000KT 10SM CLR 14/14 A2971 RMK AO2
KS25 230655Z AUTO 21004KT 10SM CLR 14/14 A2971 RMK AO2
KS25 230635Z AUTO 00000KT 10SM CLR 14/14 A2971 RMK AO2
KS25 230615Z AUTO 19005KT 10SM CLR 14/14 A2971 RMK AO2
KS25 230555Z AUTO 00000KT 10SM CLR 14/14 A2971 RMK AO2
KS25 230535Z AUTO 13007KT 10SM CLR 15/15 A2972 RMK AO2
KS25 230515Z AUTO 00000KT 10SM CLR 15/15 A2972 RMK AO2
KS25 230455Z AUTO 12004KT 10SM CLR 15/15 A2972 RMK AO2
KS25 230435Z AUTO 00000KT 10SM CLR 15/14 A2971 RMK AO2
KS25 230415Z AUTO 00000KT 10SM CLR 16/15 A2973 RMK AO2
KS25 230355Z AUTO 00000KT 10SM CLR 16/15 A2973 RMK AO2
KS25 230335Z AUTO 00000KT 10SM CLR 16/15 A2972 RMK AO2
KS25 230315Z AUTO 00000KT 10SM CLR 16/15 A2972 RMK AO2
KS25 230255Z AUTO 21005KT 10SM CLR 16/15 A2971 RMK AO2
KS25 230235Z AUTO 24004KT 10SM CLR 17/16 A2971 RMK AO2
KS25 230215Z AUTO 24007KT 10SM CLR 17/16 A2971 RMK AO2
KS25 230155Z AUTO 23008KT 10SM CLR 18/16 A2972 RMK AO2
KS25 230135Z AUTO 21008KT 10SM CLR 18/16 A2972 RMK AO2
KS25 230115Z AUTO 25010KT 10SM -DZ CLR 19/16 A2971 RMK AO2
KS25 230055Z AUTO 25011KT 10SM -DZ CLR 19/16 A2972 RMK AO2
KS25 230035Z AUTO 21010G16KT 10SM -RA FEW015 FEW029 SCT048 19/17 A2972 RMK AO2
KS25 230015Z AUTO 19005KT 5SM -RA FEW013 SCT028 BKN085 20/17 A2972 RMK AO2
KS25 222355Z AUTO 00000KT 10SM FEW110 20/18 A2972 RMK AO2
KS25 222335Z AUTO 14006G12KT 10SM FEW120 20/17 A2972 RMK AO2
KS25 222315Z AUTO 00000KT 10SM CLR 19/17 A2971 RMK AO2
KS25 222255Z AUTO 01006G13KT 10SM FEW007 FEW028 SCT075 19/18 A2971 RMK AO2
KS25 222235Z AUTO 00000G19KT 1 1/4SM RA SCT001 BKN010 OVC049 18/16 A2971 RMK AO2
KS25 222215Z AUTO 21016G22KT 10SM BKN050 BKN060 BKN075 21/15 A2969 RMK AO2
KS25 222155Z AUTO 00000KT 10SM FEW060 SCT075 SCT090 26/14 A2968 RMK AO2
KS25 222135Z AUTO VRB04KT 10SM FEW075 SCT090 SCT120 27/14 A2969 RMK AO2
KS25 222115Z AUTO VRB04KT 10SM CLR 27/15 A2970 RMK AO2
KS25 222055Z AUTO 00000KT 10SM FEW050 FEW060 SCT080 26/14 A2970 RMK AO2
KS25 222035Z AUTO 36006KT 10SM SCT050 BKN070 BKN090 24/15 A2972 RMK AO2
KS25 222015Z AUTO 30008G17KT 10SM BKN050 BKN070 23/15 A2973 RMK AO2
KS25 221955Z AUTO 15010KT 10SM SCT055 BKN065 BKN075 27/14 A2973 RMK AO2
KS25 221935Z AUTO 12011KT 10SM FEW039 SCT055 BKN100 27/14 A2974 RMK AO2